sensor_id;sensor_type;location;lat;lon;timestamp;temperature;humidity
15452;DHT22;7827;53.594;9.938;2022-12-07T00:01:45;3.90;99.90
15452;DHT22;7827;53.594;9.938;2022-12-07T00:04:16;3.90;99.90
15452;DHT22;7827;53.594;9.938;2022-12-07T00:06:47;3.90;99.90
15452;DHT22;7827;53.594;9.938;2022-12-07T00:09:19;3.80;99.90
15452;DHT22;7827;53.594;9.938;2022-12-07T00:11:50;3.90;99.90
15452;DHT22;7827;53.594;9.938;2022-12-07T00:14:19;3.80;99.90
15452;DHT22;7827;53.594;9.938;2022-12-07T00:16:49;3.90;99.90
15452;DHT22;7827;53.594;9.938;2022-12-07T00:19:19;3.90;99.90
15452;DHT22;7827;53.594;9.938;2022-12-07T00:21:48;3.90;99.90
15452;DHT22;7827;53.594;9.938;2022-12-07T00:24:17;3.90;99.90
15452;DHT22;7827;53.594;9.938;2022-12-07T00:26:45;3.90;99.90
15452;DHT22;7827;53.594;9.938;2022-12-07T00:29:17;3.90;99.90
15452;DHT22;7827;53.594;9.938;2022-12-07T00:31:47;4.00;99.90
15452;DHT22;7827;53.594;9.938;2022-12-07T00:34:17;4.00;99.90
15452;DHT22;7827;53.594;9.938;2022-12-07T00:36:48;4.00;99.90
15452;DHT22;7827;53.594;9.938;2022-12-07T00:39:17;4.00;99.90
15452;DHT22;7827;53.594;9.938;2022-12-07T00:41:46;4.10;99.90
15452;DHT22;7827;53.594;9.938;2022-12-07T00:44:16;4.10;99.90
15452;DHT22;7827;53.594;9.938;2022-12-07T00:46:44;4.10;99.90
15452;DHT22;7827;53.594;9.938;2022-12-07T00:49:13;4.20;99.90
15452;DHT22;7827;53.594;9.938;2022-12-07T00:51:41;4.20;99.90
15452;DHT22;7827;53.594;9.938;2022-12-07T00:54:10;4.20;99.90
15452;DHT22;7827;53.594;9.938;2022-12-07T00:56:39;4.20;99.90
15452;DHT22;7827;53.594;9.938;2022-12-07T00:59:10;4.20;99.90
15452;DHT22;7827;53.594;9.938;2022-12-07T01:01:42;4.10;99.90
15452;DHT22;7827;53.594;9.938;2022-12-07T01:04:10;4.10;99.90
15452;DHT22;7827;53.594;9.938;2022-12-07T01:06:39;4.20;99.90
15452;DHT22;7827;53.594;9.938;2022-12-07T01:09:07;4.20;99.90
15452;DHT22;7827;53.594;9.938;2022-12-07T01:11:35;4.20;99.90
15452;DHT22;7827;53.594;9.938;2022-12-07T01:14:04;4.20;99.90
15452;DHT22;7827;53.594;9.938;2022-12-07T01:16:33;4.20;99.90
15452;DHT22;7827;53.594;9.938;2022-12-07T01:19:02;4.20;99.90
15452;DHT22;7827;53.594;9.938;2022-12-07T01:21:34;4.20;99.90
15452;DHT22;7827;53.594;9.938;2022-12-07T01:24:06;4.20;99.90
15452;DHT22;7827;53.594;9.938;2022-12-07T01:26:37;4.10;99.90
15452;DHT22;7827;53.594;9.938;2022-12-07T01:29:06;4.10;99.90
15452;DHT22;7827;53.594;9.938;2022-12-07T01:31:34;4.10;99.90
15452;DHT22;7827;53.594;9.938;2022-12-07T01:34:04;4.10;99.90
15452;DHT22;7827;53.594;9.938;2022-12-07T01:36:34;4.10;99.90
15452;DHT22;7827;53.594;9.938;2022-12-07T01:39:05;4.10;99.90
15452;DHT22;7827;53.594;9.938;2022-12-07T01:41:37;4.10;99.90
15452;DHT22;7827;53.594;9.938;2022-12-07T01:44:16;4.10;99.90
15452;DHT22;7827;53.594;9.938;2022-12-07T01:46:48;4.10;99.90
15452;DHT22;7827;53.594;9.938;2022-12-07T01:49:25;4.10;99.90
15452;DHT22;7827;53.594;9.938;2022-12-07T01:52:02;4.00;99.90
15452;DHT22;7827;53.594;9.938;2022-12-07T01:54:38;4.00;99.90
15452;DHT22;7827;53.594;9.938;2022-12-07T01:57:08;4.00;99.90
15452;DHT22;7827;53.594;9.938;2022-12-07T01:59:37;4.00;99.90
15452;DHT22;7827;53.594;9.938;2022-12-07T02:02:11;4.00;99.90
15452;DHT22;7827;53.594;9.938;2022-12-07T02:04:47;3.90;99.90
15452;DHT22;7827;53.594;9.938;2022-12-07T02:07:15;3.90;99.90
15452;DHT22;7827;53.594;9.938;2022-12-07T02:09:44;3.90;99.90
15452;DHT22;7827;53.594;9.938;2022-12-07T02:12:12;3.90;99.90
15452;DHT22;7827;53.594;9.938;2022-12-07T02:14:41;3.90;99.90
15452;DHT22;7827;53.594;9.938;2022-12-07T02:17:14;3.90;99.90
15452;DHT22;7827;53.594;9.938;2022-12-07T02:20:09;3.90;99.90
15452;DHT22;7827;53.594;9.938;2022-12-07T02:23:07;3.90;99.90
15452;DHT22;7827;53.594;9.938;2022-12-07T02:26:02;3.90;99.90
15452;DHT22;7827;53.594;9.938;2022-12-07T02:29:16;3.80;99.90
15452;DHT22;7827;53.594;9.938;2022-12-07T02:31:58;3.80;99.90
15452;DHT22;7827;53.594;9.938;2022-12-07T02:34:38;3.70;99.90
15452;DHT22;7827;53.594;9.938;2022-12-07T02:37:21;3.80;99.90
15452;DHT22;7827;53.594;9.938;2022-12-07T02:40:02;3.80;99.90
15452;DHT22;7827;53.594;9.938;2022-12-07T02:42:39;3.80;99.90
15452;DHT22;7827;53.594;9.938;2022-12-07T02:45:17;3.70;99.90
15452;DHT22;7827;53.594;9.938;2022-12-07T02:47:51;3.80;99.90
15452;DHT22;7827;53.594;9.938;2022-12-07T02:50:23;3.70;99.90
15452;DHT22;7827;53.594;9.938;2022-12-07T02:52:51;3.70;99.90
15452;DHT22;7827;53.594;9.938;2022-12-07T02:55:23;3.70;99.90
15452;DHT22;7827;53.594;9.938;2022-12-07T02:58:11;3.70;99.90
15452;DHT22;7827;53.594;9.938;2022-12-07T03:00:59;3.70;99.90
15452;DHT22;7827;53.594;9.938;2022-12-07T03:03:35;3.60;99.90
15452;DHT22;7827;53.594;9.938;2022-12-07T03:06:10;3.60;99.90
15452;DHT22;7827;53.594;9.938;2022-12-07T03:08:50;3.60;99.90
15452;DHT22;7827;53.594;9.938;2022-12-07T03:11:31;3.60;99.90
15452;DHT22;7827;53.594;9.938;2022-12-07T03:14:13;3.50;99.90
15452;DHT22;7827;53.594;9.938;2022-12-07T03:16:52;3.50;99.90
15452;DHT22;7827;53.594;9.938;2022-12-07T03:19:24;3.50;99.90
15452;DHT22;7827;53.594;9.938;2022-12-07T03:21:57;3.50;99.90
15452;DHT22;7827;53.594;9.938;2022-12-07T03:24:36;3.40;99.90
15452;DHT22;7827;53.594;9.938;2022-12-07T03:27:12;3.40;99.90
15452;DHT22;7827;53.594;9.938;2022-12-07T03:29:48;3.40;99.90
15452;DHT22;7827;53.594;9.938;2022-12-07T03:32:23;3.40;99.90
15452;DHT22;7827;53.594;9.938;2022-12-07T03:35:00;3.30;99.90
15452;DHT22;7827;53.594;9.938;2022-12-07T03:37:33;3.30;99.90
15452;DHT22;7827;53.594;9.938;2022-12-07T03:40:10;3.30;99.90
15452;DHT22;7827;53.594;9.938;2022-12-07T03:42:44;3.30;99.90
15452;DHT22;7827;53.594;9.938;2022-12-07T03:45:13;3.30;99.90
15452;DHT22;7827;53.594;9.938;2022-12-07T03:47:47;3.30;99.90
15452;DHT22;7827;53.594;9.938;2022-12-07T03:50:27;3.30;99.90
15452;DHT22;7827;53.594;9.938;2022-12-07T03:53:05;3.20;99.90
15452;DHT22;7827;53.594;9.938;2022-12-07T03:55:40;3.20;99.90
15452;DHT22;7827;53.594;9.938;2022-12-07T03:58:12;3.20;99.90
15452;DHT22;7827;53.594;9.938;2022-12-07T04:00:46;3.20;99.90
15452;DHT22;7827;53.594;9.938;2022-12-07T04:03:16;3.20;99.90
15452;DHT22;7827;53.594;9.938;2022-12-07T04:05:45;3.20;99.90
15452;DHT22;7827;53.594;9.938;2022-12-07T04:08:13;3.20;99.90
15452;DHT22;7827;53.594;9.938;2022-12-07T04:10:42;3.10;99.90
15452;DHT22;7827;53.594;9.938;2022-12-07T04:13:10;3.10;99.90
15452;DHT22;7827;53.594;9.938;2022-12-07T04:15:39;3.10;99.90
15452;DHT22;7827;53.594;9.938;2022-12-07T04:18:07;3.10;99.90
15452;DHT22;7827;53.594;9.938;2022-12-07T04:20:37;3.00;99.90
15452;DHT22;7827;53.594;9.938;2022-12-07T04:23:06;3.10;99.90
15452;DHT22;7827;53.594;9.938;2022-12-07T04:25:34;3.00;99.90
15452;DHT22;7827;53.594;9.938;2022-12-07T04:28:03;3.00;99.90
15452;DHT22;7827;53.594;9.938;2022-12-07T04:30:32;3.00;99.90
15452;DHT22;7827;53.594;9.938;2022-12-07T04:33:00;3.00;99.90
15452;DHT22;7827;53.594;9.938;2022-12-07T04:35:29;3.00;99.90
15452;DHT22;7827;53.594;9.938;2022-12-07T04:37:59;2.90;99.90
15452;DHT22;7827;53.594;9.938;2022-12-07T04:40:27;2.90;99.90
15452;DHT22;7827;53.594;9.938;2022-12-07T04:42:56;3.00;99.90
15452;DHT22;7827;53.594;9.938;2022-12-07T04:45:24;2.90;99.90
15452;DHT22;7827;53.594;9.938;2022-12-07T04:47:53;2.90;99.90
15452;DHT22;7827;53.594;9.938;2022-12-07T04:50:21;2.90;99.90
15452;DHT22;7827;53.594;9.938;2022-12-07T04:52:50;2.90;99.90
15452;DHT22;7827;53.594;9.938;2022-12-07T04:55:19;2.80;99.90
15452;DHT22;7827;53.594;9.938;2022-12-07T04:57:50;2.80;99.90
15452;DHT22;7827;53.594;9.938;2022-12-07T05:00:19;2.70;99.90
15452;DHT22;7827;53.594;9.938;2022-12-07T05:02:47;2.70;99.90
15452;DHT22;7827;53.594;9.938;2022-12-07T05:05:16;2.60;99.90
15452;DHT22;7827;53.594;9.938;2022-12-07T05:07:44;2.60;99.90
15452;DHT22;7827;53.594;9.938;2022-12-07T05:10:13;2.70;99.90
15452;DHT22;7827;53.594;9.938;2022-12-07T05:12:43;2.70;99.90
15452;DHT22;7827;53.594;9.938;2022-12-07T05:15:12;2.60;99.90
15452;DHT22;7827;53.594;9.938;2022-12-07T05:17:41;2.50;99.90
15452;DHT22;7827;53.594;9.938;2022-12-07T05:20:11;2.50;99.90
15452;DHT22;7827;53.594;9.938;2022-12-07T05:22:40;2.50;99.90
15452;DHT22;7827;53.594;9.938;2022-12-07T05:25:08;2.50;99.90
15452;DHT22;7827;53.594;9.938;2022-12-07T05:27:37;2.50;99.90
15452;DHT22;7827;53.594;9.938;2022-12-07T05:30:08;2.40;99.90
15452;DHT22;7827;53.594;9.938;2022-12-07T05:32:37;2.40;99.90
15452;DHT22;7827;53.594;9.938;2022-12-07T05:35:06;2.40;99.90
15452;DHT22;7827;53.594;9.938;2022-12-07T05:37:34;2.40;99.90
15452;DHT22;7827;53.594;9.938;2022-12-07T05:40:04;2.40;99.90
15452;DHT22;7827;53.594;9.938;2022-12-07T05:42:34;2.60;99.90
15452;DHT22;7827;53.594;9.938;2022-12-07T05:45:02;2.50;99.90
15452;DHT22;7827;53.594;9.938;2022-12-07T05:47:33;2.60;99.90
15452;DHT22;7827;53.594;9.938;2022-12-07T05:50:01;2.60;99.90
15452;DHT22;7827;53.594;9.938;2022-12-07T05:52:31;2.60;99.90
15452;DHT22;7827;53.594;9.938;2022-12-07T05:54:59;2.70;99.90
15452;DHT22;7827;53.594;9.938;2022-12-07T05:57:28;2.60;99.90
15452;DHT22;7827;53.594;9.938;2022-12-07T05:59:56;2.60;99.90
15452;DHT22;7827;53.594;9.938;2022-12-07T06:02:23;2.60;99.90
15452;DHT22;7827;53.594;9.938;2022-12-07T06:04:53;2.60;99.90
15452;DHT22;7827;53.594;9.938;2022-12-07T06:07:22;2.70;99.90
15452;DHT22;7827;53.594;9.938;2022-12-07T06:09:50;2.60;99.90
15452;DHT22;7827;53.594;9.938;2022-12-07T06:12:19;2.80;99.90
15452;DHT22;7827;53.594;9.938;2022-12-07T06:15:01;2.90;99.90
15452;DHT22;7827;53.594;9.938;2022-12-07T06:17:33;3.10;99.90
15452;DHT22;7827;53.594;9.938;2022-12-07T06:20:04;3.20;99.90
15452;DHT22;7827;53.594;9.938;2022-12-07T06:22:33;3.30;99.90
15452;DHT22;7827;53.594;9.938;2022-12-07T06:25:02;3.30;99.90
15452;DHT22;7827;53.594;9.938;2022-12-07T06:27:34;3.30;99.90
15452;DHT22;7827;53.594;9.938;2022-12-07T06:30:04;3.30;99.90
15452;DHT22;7827;53.594;9.938;2022-12-07T06:32:36;3.30;99.90
15452;DHT22;7827;53.594;9.938;2022-12-07T06:35:07;3.30;99.90
15452;DHT22;7827;53.594;9.938;2022-12-07T06:37:35;3.40;99.90
15452;DHT22;7827;53.594;9.938;2022-12-07T06:40:05;3.40;99.90
15452;DHT22;7827;53.594;9.938;2022-12-07T06:42:34;3.30;99.90
15452;DHT22;7827;53.594;9.938;2022-12-07T06:45:03;3.20;99.90
15452;DHT22;7827;53.594;9.938;2022-12-07T06:47:32;3.20;99.90
15452;DHT22;7827;53.594;9.938;2022-12-07T06:50:12;3.10;99.90
15452;DHT22;7827;53.594;9.938;2022-12-07T06:52:41;3.10;99.90
15452;DHT22;7827;53.594;9.938;2022-12-07T06:55:09;3.20;99.90
15452;DHT22;7827;53.594;9.938;2022-12-07T06:57:37;3.20;99.90
15452;DHT22;7827;53.594;9.938;2022-12-07T07:00:07;3.20;99.90
15452;DHT22;7827;53.594;9.938;2022-12-07T07:02:36;3.20;99.90
15452;DHT22;7827;53.594;9.938;2022-12-07T07:05:05;3.30;99.90
15452;DHT22;7827;53.594;9.938;2022-12-07T07:07:35;3.30;99.90
15452;DHT22;7827;53.594;9.938;2022-12-07T07:10:23;3.20;99.90
15452;DHT22;7827;53.594;9.938;2022-12-07T07:12:51;3.20;99.90
15452;DHT22;7827;53.594;9.938;2022-12-07T07:15:23;3.30;99.90
15452;DHT22;7827;53.594;9.938;2022-12-07T07:17:52;3.30;99.90
15452;DHT22;7827;53.594;9.938;2022-12-07T07:20:21;3.30;99.90
15452;DHT22;7827;53.594;9.938;2022-12-07T07:22:53;3.30;99.90
15452;DHT22;7827;53.594;9.938;2022-12-07T07:25:22;3.30;99.90
15452;DHT22;7827;53.594;9.938;2022-12-07T07:27:50;3.20;99.90
15452;DHT22;7827;53.594;9.938;2022-12-07T07:30:19;3.20;99.90
15452;DHT22;7827;53.594;9.938;2022-12-07T07:32:47;3.20;99.90
15452;DHT22;7827;53.594;9.938;2022-12-07T07:35:16;3.10;99.90
15452;DHT22;7827;53.594;9.938;2022-12-07T07:37:44;3.20;99.90
15452;DHT22;7827;53.594;9.938;2022-12-07T07:40:14;3.20;99.90
15452;DHT22;7827;53.594;9.938;2022-12-07T07:42:43;3.20;99.90
15452;DHT22;7827;53.594;9.938;2022-12-07T07:45:11;3.20;99.90
15452;DHT22;7827;53.594;9.938;2022-12-07T07:47:39;3.20;99.90
15452;DHT22;7827;53.594;9.938;2022-12-07T07:50:09;3.30;99.90
15452;DHT22;7827;53.594;9.938;2022-12-07T07:52:38;3.30;99.90
15452;DHT22;7827;53.594;9.938;2022-12-07T07:55:07;3.30;99.90
15452;DHT22;7827;53.594;9.938;2022-12-07T07:57:38;3.20;99.90
15452;DHT22;7827;53.594;9.938;2022-12-07T08:00:09;3.30;99.90
15452;DHT22;7827;53.594;9.938;2022-12-07T08:02:40;3.20;99.90
15452;DHT22;7827;53.594;9.938;2022-12-07T08:05:10;3.30;99.90
15452;DHT22;7827;53.594;9.938;2022-12-07T08:07:39;3.30;99.90
15452;DHT22;7827;53.594;9.938;2022-12-07T08:10:10;3.30;99.90
15452;DHT22;7827;53.594;9.938;2022-12-07T08:12:42;3.40;99.90
15452;DHT22;7827;53.594;9.938;2022-12-07T08:15:30;3.30;99.90
15452;DHT22;7827;53.594;9.938;2022-12-07T08:17:59;3.40;99.90
15452;DHT22;7827;53.594;9.938;2022-12-07T08:20:30;3.40;99.90
15452;DHT22;7827;53.594;9.938;2022-12-07T08:22:59;3.50;99.90
15452;DHT22;7827;53.594;9.938;2022-12-07T08:25:28;3.50;99.90
15452;DHT22;7827;53.594;9.938;2022-12-07T08:27:59;3.50;99.90
15452;DHT22;7827;53.594;9.938;2022-12-07T08:30:28;3.50;99.90
15452;DHT22;7827;53.594;9.938;2022-12-07T08:32:58;3.50;99.90
15452;DHT22;7827;53.594;9.938;2022-12-07T08:35:26;3.60;99.90
15452;DHT22;7827;53.594;9.938;2022-12-07T08:37:55;3.70;99.90
15452;DHT22;7827;53.594;9.938;2022-12-07T08:40:24;3.60;99.90
15452;DHT22;7827;53.594;9.938;2022-12-07T08:42:53;3.60;99.90
15452;DHT22;7827;53.594;9.938;2022-12-07T08:45:23;3.60;99.90
15452;DHT22;7827;53.594;9.938;2022-12-07T08:47:56;3.60;99.90
15452;DHT22;7827;53.594;9.938;2022-12-07T08:50:29;3.60;99.90
15452;DHT22;7827;53.594;9.938;2022-12-07T08:53:01;3.60;99.90
15452;DHT22;7827;53.594;9.938;2022-12-07T08:55:33;3.60;99.90
15452;DHT22;7827;53.594;9.938;2022-12-07T08:58:02;3.70;99.90
15452;DHT22;7827;53.594;9.938;2022-12-07T09:00:32;3.80;99.90
15452;DHT22;7827;53.594;9.938;2022-12-07T09:03:01;3.80;99.90
15452;DHT22;7827;53.594;9.938;2022-12-07T09:05:29;3.80;99.90
15452;DHT22;7827;53.594;9.938;2022-12-07T09:08:00;3.80;99.90
15452;DHT22;7827;53.594;9.938;2022-12-07T09:10:29;3.80;99.90
15452;DHT22;7827;53.594;9.938;2022-12-07T09:12:58;3.80;99.90
15452;DHT22;7827;53.594;9.938;2022-12-07T09:15:27;3.80;99.90
15452;DHT22;7827;53.594;9.938;2022-12-07T09:17:58;3.80;99.90
15452;DHT22;7827;53.594;9.938;2022-12-07T09:20:26;3.90;99.90
15452;DHT22;7827;53.594;9.938;2022-12-07T09:22:55;3.90;99.90
15452;DHT22;7827;53.594;9.938;2022-12-07T09:25:23;3.80;99.90
15452;DHT22;7827;53.594;9.938;2022-12-07T09:27:55;3.80;99.90
15452;DHT22;7827;53.594;9.938;2022-12-07T09:30:25;3.90;99.90
15452;DHT22;7827;53.594;9.938;2022-12-07T09:32:55;4.00;99.90
15452;DHT22;7827;53.594;9.938;2022-12-07T09:35:26;4.00;99.90
15452;DHT22;7827;53.594;9.938;2022-12-07T09:37:55;4.00;99.90
15452;DHT22;7827;53.594;9.938;2022-12-07T09:40:23;4.10;99.90
15452;DHT22;7827;53.594;9.938;2022-12-07T09:42:53;4.20;99.90
15452;DHT22;7827;53.594;9.938;2022-12-07T09:45:26;4.20;99.90
15452;DHT22;7827;53.594;9.938;2022-12-07T09:47:59;4.20;99.90
15452;DHT22;7827;53.594;9.938;2022-12-07T09:50:30;4.20;99.90
15452;DHT22;7827;53.594;9.938;2022-12-07T09:53:07;4.20;99.90
15452;DHT22;7827;53.594;9.938;2022-12-07T09:55:38;4.20;99.90
15452;DHT22;7827;53.594;9.938;2022-12-07T09:58:19;4.20;99.90
15452;DHT22;7827;53.594;9.938;2022-12-07T10:00:51;4.20;99.90
15452;DHT22;7827;53.594;9.938;2022-12-07T10:03:21;4.20;99.90
15452;DHT22;7827;53.594;9.938;2022-12-07T10:05:52;4.20;99.90
15452;DHT22;7827;53.594;9.938;2022-12-07T10:08:21;4.20;99.90
15452;DHT22;7827;53.594;9.938;2022-12-07T10:10:52;4.20;99.90
15452;DHT22;7827;53.594;9.938;2022-12-07T10:13:34;4.20;99.90
15452;DHT22;7827;53.594;9.938;2022-12-07T10:16:05;4.30;99.90
15452;DHT22;7827;53.594;9.938;2022-12-07T10:18:36;4.30;99.90
15452;DHT22;7827;53.594;9.938;2022-12-07T10:21:12;4.30;99.90
15452;DHT22;7827;53.594;9.938;2022-12-07T10:23:59;4.20;99.90
15452;DHT22;7827;53.594;9.938;2022-12-07T10:26:31;4.30;99.90
15452;DHT22;7827;53.594;9.938;2022-12-07T10:29:04;4.40;99.90
15452;DHT22;7827;53.594;9.938;2022-12-07T10:31:43;4.60;99.90
15452;DHT22;7827;53.594;9.938;2022-12-07T10:34:21;4.70;99.90
15452;DHT22;7827;53.594;9.938;2022-12-07T10:36:53;4.80;99.90
15452;DHT22;7827;53.594;9.938;2022-12-07T10:39:42;5.00;99.90
15452;DHT22;7827;53.594;9.938;2022-12-07T10:42:19;5.20;99.90
15452;DHT22;7827;53.594;9.938;2022-12-07T10:44:49;5.20;99.90
15452;DHT22;7827;53.594;9.938;2022-12-07T10:47:36;5.20;99.90
15452;DHT22;7827;53.594;9.938;2022-12-07T10:53:32;4.90;99.90
15452;DHT22;7827;53.594;9.938;2022-12-07T10:56:41;4.70;99.90
15452;DHT22;7827;53.594;9.938;2022-12-07T10:59:51;4.60;99.90
15452;DHT22;7827;53.594;9.938;2022-12-07T11:02:41;4.50;99.90
15452;DHT22;7827;53.594;9.938;2022-12-07T11:05:30;4.50;99.90
15452;DHT22;7827;53.594;9.938;2022-12-07T11:08:16;4.60;99.90
15452;DHT22;7827;53.594;9.938;2022-12-07T11:10:55;4.50;99.90
15452;DHT22;7827;53.594;9.938;2022-12-07T11:13:39;4.40;99.90
15452;DHT22;7827;53.594;9.938;2022-12-07T11:16:28;4.50;99.90
15452;DHT22;7827;53.594;9.938;2022-12-07T11:19:20;4.40;99.90
15452;DHT22;7827;53.594;9.938;2022-12-07T11:22:06;4.40;99.90
15452;DHT22;7827;53.594;9.938;2022-12-07T11:24:43;4.40;99.90
15452;DHT22;7827;53.594;9.938;2022-12-07T11:27:26;4.50;99.90
15452;DHT22;7827;53.594;9.938;2022-12-07T11:30:14;4.50;99.90
15452;DHT22;7827;53.594;9.938;2022-12-07T11:33:04;4.50;99.90
15452;DHT22;7827;53.594;9.938;2022-12-07T11:35:52;4.50;99.90
15452;DHT22;7827;53.594;9.938;2022-12-07T11:38:37;4.50;99.90
15452;DHT22;7827;53.594;9.938;2022-12-07T11:41:10;4.50;99.90
15452;DHT22;7827;53.594;9.938;2022-12-07T11:43:52;4.50;99.90
15452;DHT22;7827;53.594;9.938;2022-12-07T11:46:26;4.50;99.90
15452;DHT22;7827;53.594;9.938;2022-12-07T11:49:07;4.50;99.90
15452;DHT22;7827;53.594;9.938;2022-12-07T11:51:41;4.50;99.90
15452;DHT22;7827;53.594;9.938;2022-12-07T11:54:15;4.40;99.90
15452;DHT22;7827;53.594;9.938;2022-12-07T11:56:50;4.40;99.90
15452;DHT22;7827;53.594;9.938;2022-12-07T11:59:25;4.50;99.90
15452;DHT22;7827;53.594;9.938;2022-12-07T12:02:11;4.60;99.90
15452;DHT22;7827;53.594;9.938;2022-12-07T12:04:49;4.60;99.90
15452;DHT22;7827;53.594;9.938;2022-12-07T12:07:25;4.60;99.90
15452;DHT22;7827;53.594;9.938;2022-12-07T12:10:20;4.60;99.90
15452;DHT22;7827;53.594;9.938;2022-12-07T12:13:06;4.60;99.90
15452;DHT22;7827;53.594;9.938;2022-12-07T12:16:31;4.60;99.90
15452;DHT22;7827;53.594;9.938;2022-12-07T12:19:24;4.70;99.90
15452;DHT22;7827;53.594;9.938;2022-12-07T12:22:11;4.70;99.90
15452;DHT22;7827;53.594;9.938;2022-12-07T12:24:43;4.80;99.90
15452;DHT22;7827;53.594;9.938;2022-12-07T12:27:21;4.70;99.90
15452;DHT22;7827;53.594;9.938;2022-12-07T12:29:54;4.70;99.90
15452;DHT22;7827;53.594;9.938;2022-12-07T12:32:37;4.80;99.90
15452;DHT22;7827;53.594;9.938;2022-12-07T12:35:28;4.70;99.90
15452;DHT22;7827;53.594;9.938;2022-12-07T12:38:27;4.80;99.90
15452;DHT22;7827;53.594;9.938;2022-12-07T12:41:01;4.80;99.90
15452;DHT22;7827;53.594;9.938;2022-12-07T12:43:50;4.90;99.90
15452;DHT22;7827;53.594;9.938;2022-12-07T12:46:46;5.00;99.90
15452;DHT22;7827;53.594;9.938;2022-12-07T12:49:35;4.90;99.90
15452;DHT22;7827;53.594;9.938;2022-12-07T12:56:00;4.90;99.90
15452;DHT22;7827;53.594;9.938;2022-12-07T12:58:40;4.80;99.90
15452;DHT22;7827;53.594;9.938;2022-12-07T13:01:39;4.80;99.90
15452;DHT22;7827;53.594;9.938;2022-12-07T13:04:38;4.80;99.90
15452;DHT22;7827;53.594;9.938;2022-12-07T13:07:53;4.80;99.90
15452;DHT22;7827;53.594;9.938;2022-12-07T13:10:44;4.80;99.90
15452;DHT22;7827;53.594;9.938;2022-12-07T13:13:31;4.70;99.90
15452;DHT22;7827;53.594;9.938;2022-12-07T13:16:36;4.80;99.90
15452;DHT22;7827;53.594;9.938;2022-12-07T13:22:48;4.80;99.90
15452;DHT22;7827;53.594;9.938;2022-12-07T13:25:29;4.80;99.90
15452;DHT22;7827;53.594;9.938;2022-12-07T13:28:02;4.90;99.90
15452;DHT22;7827;53.594;9.938;2022-12-07T13:30:45;4.80;99.90
15452;DHT22;7827;53.594;9.938;2022-12-07T13:33:19;4.80;99.90
15452;DHT22;7827;53.594;9.938;2022-12-07T13:35:48;4.90;99.90
15452;DHT22;7827;53.594;9.938;2022-12-07T13:38:27;4.90;99.90
15452;DHT22;7827;53.594;9.938;2022-12-07T13:41:12;4.90;99.90
15452;DHT22;7827;53.594;9.938;2022-12-07T13:43:44;5.00;99.90
15452;DHT22;7827;53.594;9.938;2022-12-07T13:46:14;4.90;99.90
15452;DHT22;7827;53.594;9.938;2022-12-07T13:48:47;4.90;99.90
15452;DHT22;7827;53.594;9.938;2022-12-07T13:51:22;4.90;99.90
15452;DHT22;7827;53.594;9.938;2022-12-07T13:53:55;4.90;99.90
15452;DHT22;7827;53.594;9.938;2022-12-07T13:56:32;5.00;99.90
15452;DHT22;7827;53.594;9.938;2022-12-07T13:59:02;4.90;99.90
15452;DHT22;7827;53.594;9.938;2022-12-07T14:01:33;4.80;99.90
15452;DHT22;7827;53.594;9.938;2022-12-07T14:04:19;4.80;99.90
15452;DHT22;7827;53.594;9.938;2022-12-07T14:06:55;4.80;99.90
15452;DHT22;7827;53.594;9.938;2022-12-07T14:09:26;4.70;99.90
15452;DHT22;7827;53.594;9.938;2022-12-07T14:11:57;4.60;99.90
15452;DHT22;7827;53.594;9.938;2022-12-07T14:14:29;4.60;99.90
15452;DHT22;7827;53.594;9.938;2022-12-07T14:17:12;4.50;99.90
15452;DHT22;7827;53.594;9.938;2022-12-07T14:19:47;4.60;99.90
15452;DHT22;7827;53.594;9.938;2022-12-07T14:22:23;4.50;99.90
15452;DHT22;7827;53.594;9.938;2022-12-07T14:25:18;4.50;99.90
15452;DHT22;7827;53.594;9.938;2022-12-07T14:27:54;4.50;99.90
15452;DHT22;7827;53.594;9.938;2022-12-07T14:30:26;4.40;99.90
15452;DHT22;7827;53.594;9.938;2022-12-07T14:32:59;4.40;99.90
15452;DHT22;7827;53.594;9.938;2022-12-07T14:35:30;4.40;99.90
15452;DHT22;7827;53.594;9.938;2022-12-07T14:37:59;4.40;99.90
15452;DHT22;7827;53.594;9.938;2022-12-07T14:40:29;4.30;99.90
15452;DHT22;7827;53.594;9.938;2022-12-07T14:43:01;4.20;99.90
15452;DHT22;7827;53.594;9.938;2022-12-07T14:45:31;4.10;99.90
15452;DHT22;7827;53.594;9.938;2022-12-07T14:47:59;4.00;99.90
15452;DHT22;7827;53.594;9.938;2022-12-07T14:50:50;4.00;99.90
15452;DHT22;7827;53.594;9.938;2022-12-07T14:53:42;4.00;99.90
15452;DHT22;7827;53.594;9.938;2022-12-07T14:56:22;3.90;99.90
15452;DHT22;7827;53.594;9.938;2022-12-07T14:58:51;3.90;99.90
15452;DHT22;7827;53.594;9.938;2022-12-07T15:01:20;3.80;99.90
15452;DHT22;7827;53.594;9.938;2022-12-07T15:03:48;3.80;99.90
15452;DHT22;7827;53.594;9.938;2022-12-07T15:06:18;3.70;99.90
15452;DHT22;7827;53.594;9.938;2022-12-07T15:08:46;3.70;99.90
15452;DHT22;7827;53.594;9.938;2022-12-07T15:11:16;3.60;99.90
15452;DHT22;7827;53.594;9.938;2022-12-07T15:13:46;3.50;99.90
15452;DHT22;7827;53.594;9.938;2022-12-07T15:16:33;3.50;99.90
15452;DHT22;7827;53.594;9.938;2022-12-07T15:19:23;3.50;99.90
15452;DHT22;7827;53.594;9.938;2022-12-07T15:21:56;3.50;99.90
15452;DHT22;7827;53.594;9.938;2022-12-07T15:24:27;3.50;99.90
15452;DHT22;7827;53.594;9.938;2022-12-07T15:26:55;3.40;99.90
15452;DHT22;7827;53.594;9.938;2022-12-07T15:29:25;3.40;99.90
15452;DHT22;7827;53.594;9.938;2022-12-07T15:31:54;3.40;99.90
15452;DHT22;7827;53.594;9.938;2022-12-07T15:34:25;3.30;99.90
15452;DHT22;7827;53.594;9.938;2022-12-07T15:37:02;3.20;99.90
15452;DHT22;7827;53.594;9.938;2022-12-07T15:39:30;3.20;99.90
15452;DHT22;7827;53.594;9.938;2022-12-07T15:41:58;3.20;99.90
15452;DHT22;7827;53.594;9.938;2022-12-07T15:44:28;3.20;99.90
15452;DHT22;7827;53.594;9.938;2022-12-07T15:47:14;3.10;99.90
15452;DHT22;7827;53.594;9.938;2022-12-07T15:49:43;3.00;99.90
15452;DHT22;7827;53.594;9.938;2022-12-07T15:52:11;3.00;99.90
15452;DHT22;7827;53.594;9.938;2022-12-07T15:54:40;3.00;99.90
15452;DHT22;7827;53.594;9.938;2022-12-07T15:57:08;2.90;99.90
15452;DHT22;7827;53.594;9.938;2022-12-07T15:59:38;2.90;99.90
15452;DHT22;7827;53.594;9.938;2022-12-07T16:02:08;2.90;99.90
15452;DHT22;7827;53.594;9.938;2022-12-07T16:04:36;2.80;99.90
15452;DHT22;7827;53.594;9.938;2022-12-07T16:07:05;2.80;99.90
15452;DHT22;7827;53.594;9.938;2022-12-07T16:09:33;2.70;99.90
15452;DHT22;7827;53.594;9.938;2022-12-07T16:12:02;2.80;99.90
15452;DHT22;7827;53.594;9.938;2022-12-07T16:14:30;2.70;99.90
15452;DHT22;7827;53.594;9.938;2022-12-07T16:17:01;2.70;99.90
15452;DHT22;7827;53.594;9.938;2022-12-07T16:19:31;2.70;99.90
15452;DHT22;7827;53.594;9.938;2022-12-07T16:22:00;2.70;99.90
15452;DHT22;7827;53.594;9.938;2022-12-07T16:24:29;2.70;99.90
15452;DHT22;7827;53.594;9.938;2022-12-07T16:26:58;2.60;99.90
15452;DHT22;7827;53.594;9.938;2022-12-07T16:29:27;2.60;99.90
15452;DHT22;7827;53.594;9.938;2022-12-07T16:31:55;2.60;99.90
15452;DHT22;7827;53.594;9.938;2022-12-07T16:34:25;2.50;99.90
15452;DHT22;7827;53.594;9.938;2022-12-07T16:36:53;2.50;99.90
15452;DHT22;7827;53.594;9.938;2022-12-07T16:39:31;2.50;99.90
15452;DHT22;7827;53.594;9.938;2022-12-07T16:42:01;2.50;99.90
15452;DHT22;7827;53.594;9.938;2022-12-07T16:44:29;2.50;99.90
15452;DHT22;7827;53.594;9.938;2022-12-07T16:46:58;2.40;99.90
15452;DHT22;7827;53.594;9.938;2022-12-07T16:49:29;2.40;99.90
15452;DHT22;7827;53.594;9.938;2022-12-07T16:51:58;2.40;99.90
15452;DHT22;7827;53.594;9.938;2022-12-07T16:54:46;2.40;99.90
15452;DHT22;7827;53.594;9.938;2022-12-07T16:57:14;2.30;99.90